createdAt,value
2022-09-06T00:00:53.138Z,100.00
2022-09-06T00:03:22.543Z,100.00
2022-09-06T00:05:51.423Z,100.00
2022-09-06T00:08:19.019Z,100.00
2022-09-06T00:10:48.587Z,100.00
2022-09-06T00:13:16.509Z,100.00
2022-09-06T00:15:44.498Z,99.49
2022-09-06T00:18:11.832Z,100.00
2022-09-06T00:20:41.648Z,98.68
2022-09-06T00:23:09.186Z,97.25
2022-09-06T00:25:36.801Z,96.84
2022-09-06T00:28:06.218Z,97.02
2022-09-06T00:30:34.186Z,97.23
2022-09-06T00:33:01.357Z,97.57
2022-09-06T00:35:29.587Z,98.56
2022-09-06T00:38:01.659Z,99.31
2022-09-06T00:40:30.666Z,98.98
2022-09-06T00:42:58.135Z,97.75
2022-09-06T00:45:28.123Z,98.60
2022-09-06T00:47:55.763Z,99.62
2022-09-06T00:50:23.139Z,100.00
2022-09-06T00:52:52.834Z,100.00
2022-09-06T00:55:20.826Z,100.00
2022-09-06T00:57:51.544Z,100.00
2022-09-06T01:00:20.307Z,100.00
2022-09-06T01:02:48.920Z,100.00
2022-09-06T01:05:17.072Z,100.00
2022-09-06T01:07:44.181Z,100.00
2022-09-06T01:10:51.409Z,100.00
2022-09-06T01:13:46.812Z,100.00
2022-09-06T01:16:19.057Z,100.00
2022-09-06T01:19:09.598Z,100.00
2022-09-06T01:21:55.930Z,100.00
2022-09-06T01:24:41.771Z,100.00
2022-09-06T01:27:27.246Z,100.00
2022-09-06T01:30:14.561Z,100.00
2022-09-06T01:33:13.881Z,99.53
2022-09-06T01:35:51.321Z,100.00
2022-09-06T01:38:19.577Z,100.00
2022-09-06T01:40:46.696Z,100.00
2022-09-06T01:43:22.588Z,100.00
2022-09-06T01:46:01.656Z,100.00
2022-09-06T01:48:51.163Z,100.00
2022-09-06T01:51:24.523Z,100.00
2022-09-06T01:53:51.632Z,100.00
2022-09-06T01:56:30.520Z,100.00
2022-09-06T01:59:28.477Z,100.00
2022-09-06T02:02:11.077Z,100.00
2022-09-06T02:04:53.078Z,100.00
2022-09-06T02:07:29.933Z,100.00
2022-09-06T02:10:24.770Z,100.00
2022-09-06T02:12:56.793Z,100.00
2022-09-06T02:15:29.667Z,100.00
2022-09-06T02:18:04.795Z,100.00
2022-09-06T02:20:35.529Z,100.00
2022-09-06T02:23:06.595Z,100.00
2022-09-06T02:25:44.323Z,100.00
2022-09-06T02:28:12.924Z,100.00
2022-09-06T02:30:45.494Z,100.00
2022-09-06T02:33:21.607Z,100.00
2022-09-06T02:35:52.007Z,100.00
2022-09-06T02:38:22.745Z,100.00
2022-09-06T02:40:55.070Z,100.00
2022-09-06T02:43:25.846Z,100.00
2022-09-06T02:45:53.139Z,100.00
2022-09-06T02:48:20.400Z,100.00
2022-09-06T02:50:47.514Z,100.00
2022-09-06T02:53:19.138Z,100.00
2022-09-06T02:55:48.821Z,100.00
2022-09-06T02:58:16.454Z,100.00
2022-09-06T03:00:44.177Z,100.00
2022-09-06T03:03:12.191Z,100.00
2022-09-06T03:05:39.417Z,99.73
2022-09-06T03:08:06.601Z,100.00
2022-09-06T03:10:34.114Z,100.00
2022-09-06T03:13:01.271Z,100.00
2022-09-06T03:15:28.469Z,100.00
2022-09-06T03:17:59.803Z,100.00
2022-09-06T03:20:27.163Z,100.00
2022-09-06T03:22:54.353Z,100.00
2022-09-06T03:25:21.985Z,100.00
2022-09-06T03:27:49.261Z,100.00
2022-09-06T03:30:16.527Z,100.00
2022-09-06T03:32:43.894Z,100.00
2022-09-06T03:35:11.810Z,100.00
2022-09-06T03:37:39.087Z,100.00
2022-09-06T03:40:06.831Z,100.00
2022-09-06T03:42:34.228Z,100.00
2022-09-06T03:45:01.537Z,100.00
2022-09-06T03:47:30.954Z,100.00
2022-09-06T03:49:58.138Z,100.00
2022-09-06T03:52:25.284Z,100.00
2022-09-06T03:54:52.710Z,100.00
2022-09-06T03:57:20.099Z,100.00
2022-09-06T03:59:47.094Z,100.00
2022-09-06T04:02:14.871Z,100.00
2022-09-06T04:04:41.980Z,100.00
2022-09-06T04:07:09.338Z,100.00
2022-09-06T04:09:37.256Z,100.00
2022-09-06T04:12:05.106Z,100.00
2022-09-06T04:14:32.352Z,100.00
2022-09-06T04:16:59.864Z,100.00
2022-09-06T04:19:27.291Z,100.00
2022-09-06T04:21:54.840Z,100.00
2022-09-06T04:24:22.594Z,100.00
2022-09-06T04:26:50.219Z,100.00
2022-09-06T04:29:17.394Z,100.00
2022-09-06T04:31:44.703Z,100.00
2022-09-06T04:34:11.991Z,100.00
2022-09-06T04:36:39.432Z,100.00
2022-09-06T04:39:06.616Z,100.00
2022-09-06T04:41:33.833Z,100.00
2022-09-06T04:44:01.137Z,100.00
2022-09-06T04:46:30.316Z,100.00
2022-09-06T04:48:58.113Z,100.00
2022-09-06T04:51:25.923Z,100.00
2022-09-06T04:53:53.784Z,100.00
2022-09-06T04:56:23.742Z,100.00
2022-09-06T04:58:54.502Z,100.00
2022-09-06T05:01:21.854Z,100.00
2022-09-06T05:03:49.549Z,100.00
2022-09-06T05:06:22.983Z,100.00
2022-09-06T05:08:50.863Z,100.00
2022-09-06T05:11:18.730Z,100.00
2022-09-06T05:13:47.605Z,100.00
2022-09-06T05:16:15.417Z,100.00
2022-09-06T05:18:42.954Z,100.00
2022-09-06T05:21:11.648Z,100.00
2022-09-06T05:23:39.204Z,100.00
2022-09-06T05:26:07.026Z,99.69
2022-09-06T05:28:34.254Z,99.86
2022-09-06T05:31:09.369Z,100.00
2022-09-06T05:33:36.996Z,99.38
2022-09-06T05:36:05.782Z,98.81
2022-09-06T05:38:33.820Z,99.28
2022-09-06T05:41:01.268Z,100.00
2022-09-06T05:43:28.501Z,100.00
2022-09-06T05:45:55.842Z,99.94
2022-09-06T05:48:23.055Z,99.98
2022-09-06T05:51:03.674Z,99.80
2022-09-06T05:53:39.359Z,100.00
2022-09-06T05:56:07.475Z,100.00
2022-09-06T05:58:34.995Z,100.00
2022-09-06T06:01:29.952Z,100.00
2022-09-06T06:04:15.780Z,97.94
2022-09-06T06:06:43.099Z,96.38
2022-09-06T06:09:10.364Z,95.92
2022-09-06T06:11:38.055Z,94.65
2022-09-06T06:14:05.628Z,94.27
2022-09-06T06:16:33.500Z,94.46
2022-09-06T06:19:01.040Z,95.50
2022-09-06T06:21:29.974Z,94.53
2022-09-06T06:24:03.076Z,94.66
2022-09-06T06:26:32.908Z,95.47
2022-09-06T06:29:02.156Z,96.12
2022-09-06T06:31:31.392Z,96.44
2022-09-06T06:33:59.586Z,97.02
2022-09-06T06:36:30.905Z,96.80
2022-09-06T06:38:58.754Z,96.18
2022-09-06T06:41:28.918Z,96.81
2022-09-06T06:43:59.148Z,97.05
2022-09-06T06:46:29.291Z,96.89
2022-09-06T06:48:56.621Z,96.06
2022-09-06T06:51:26.697Z,95.46
2022-09-06T06:53:54.229Z,95.57
2022-09-06T06:56:30.280Z,94.90
2022-09-06T06:59:01.870Z,93.66
2022-09-06T07:01:36.105Z,89.90
2022-09-06T07:04:08.814Z,87.27
2022-09-06T07:12:32.497Z,83.99
2022-09-06T07:15:00.513Z,83.41
2022-09-06T07:17:28.683Z,84.15
2022-09-06T07:22:40.527Z,83.62
2022-09-06T07:25:09.339Z,84.03
2022-09-06T07:27:52.852Z,82.87
2022-09-06T07:30:20.547Z,82.91
2022-09-06T07:32:48.179Z,81.69
2022-09-06T07:35:15.590Z,80.97
2022-09-06T07:37:42.902Z,79.17
2022-09-06T07:40:10.697Z,78.03
2022-09-06T07:42:38.740Z,76.60
2022-09-06T07:45:06.183Z,76.10
2022-09-06T07:53:14.115Z,74.77
2022-09-06T07:55:43.395Z,72.20
2022-09-06T07:58:11.314Z,71.39
2022-09-06T08:00:43.175Z,70.16
2022-09-06T08:03:13.652Z,68.05
2022-09-06T08:11:16.154Z,68.08
2022-09-06T08:13:44.205Z,67.96
2022-09-06T08:16:12.636Z,66.42
2022-09-06T08:18:40.335Z,63.80
2022-09-06T08:21:13.566Z,60.54
2022-09-06T08:23:50.402Z,60.57
2022-09-06T08:26:21.003Z,60.58
2022-09-06T08:29:00.360Z,60.23
2022-09-06T08:31:30.509Z,60.08
2022-09-06T08:33:59.397Z,59.75
2022-09-06T08:36:29.663Z,57.72
2022-09-06T08:38:57.827Z,57.07
2022-09-06T08:41:26.523Z,57.11
2022-09-06T08:46:58.133Z,53.79
2022-09-06T08:49:31.975Z,52.14
2022-09-06T08:52:12.378Z,50.89
2022-09-06T08:55:03.775Z,51.49
2022-09-06T08:58:08.918Z,48.84
2022-09-06T09:00:38.624Z,49.21
2022-09-06T09:03:17.120Z,48.92
2022-09-06T09:05:50.686Z,50.36
2022-09-06T09:08:53.661Z,51.97
2022-09-06T09:11:25.569Z,52.85
2022-09-06T09:14:10.661Z,51.89
2022-09-06T09:16:38.494Z,51.96
2022-09-06T09:19:06.633Z,53.11
2022-09-06T09:21:37.527Z,51.74
2022-09-06T09:24:13.471Z,52.10
2022-09-06T09:27:13.951Z,52.83
2022-09-06T09:32:45.224Z,51.22
2022-09-06T09:35:21.626Z,51.77
2022-09-06T09:37:59.445Z,51.03
2022-09-06T09:40:49.414Z,50.99
2022-09-06T09:43:19.594Z,50.15
2022-09-06T09:45:58.786Z,50.22
2022-09-06T09:48:28.178Z,50.87
2022-09-06T09:50:56.185Z,50.39
2022-09-06T09:53:24.402Z,49.54
2022-09-06T09:55:59.336Z,48.88
2022-09-06T09:58:32.249Z,50.28
2022-09-06T10:01:21.851Z,50.19
2022-09-06T10:09:35.896Z,51.74
2022-09-06T10:12:03.814Z,51.92
2022-09-06T10:14:42.076Z,50.47
2022-09-06T10:17:19.807Z,49.79
2022-09-06T10:19:47.546Z,51.18
2022-09-06T10:22:26.138Z,51.03
2022-09-06T10:25:28.728Z,51.42
2022-09-06T10:28:12.367Z,50.89
2022-09-06T10:31:02.391Z,51.15
2022-09-06T10:33:39.548Z,51.43
2022-09-06T10:36:07.871Z,51.38
2022-09-06T10:38:43.893Z,50.81
2022-09-06T10:41:13.738Z,52.41
2022-09-06T10:43:51.070Z,50.86
2022-09-06T10:46:26.509Z,49.90
2022-09-06T10:48:54.157Z,48.80
2022-09-06T10:51:50.155Z,49.29
2022-09-06T10:54:23.204Z,49.38
2022-09-06T10:56:57.467Z,48.95
2022-09-06T11:02:16.695Z,47.02
2022-09-06T11:10:35.058Z,47.65
2022-09-06T11:13:32.465Z,45.66
2022-09-06T11:16:05.911Z,46.41
2022-09-06T11:18:37.870Z,47.03
2022-09-06T11:21:12.851Z,46.16
2022-09-06T11:24:16.081Z,45.27
2022-09-06T11:27:02.750Z,47.18
2022-09-06T11:29:32.044Z,45.98
2022-09-06T11:32:18.110Z,46.37
2022-09-06T11:34:58.014Z,47.19
2022-09-06T11:37:33.040Z,46.53
2022-09-06T11:42:55.763Z,47.54
2022-09-06T11:45:45.924Z,46.59
2022-09-06T11:48:27.019Z,46.52
2022-09-06T11:50:59.452Z,46.32
2022-09-06T11:53:35.154Z,46.34
2022-09-06T11:56:02.640Z,47.29
2022-09-06T11:58:59.889Z,48.31
2022-09-06T12:01:26.973Z,46.96
2022-09-06T12:06:37.969Z,46.81
2022-09-06T12:09:29.556Z,46.55
2022-09-06T12:11:59.329Z,46.74
2022-09-06T12:14:26.600Z,46.30
2022-09-06T12:17:05.310Z,46.33
2022-09-06T12:19:52.181Z,48.25
2022-09-06T12:22:32.881Z,47.09
2022-09-06T12:25:05.548Z,46.62
2022-09-06T12:27:40.110Z,47.58
2022-09-06T12:30:12.155Z,47.34
2022-09-06T12:32:52.519Z,46.20
2022-09-06T12:38:18.633Z,46.55
2022-09-06T12:40:48.782Z,48.63
2022-09-06T12:43:17.678Z,46.77
2022-09-06T12:45:47.581Z,46.93
2022-09-06T12:48:28.500Z,46.10
2022-09-06T12:51:22.046Z,46.40
2022-09-06T12:54:00.113Z,46.22
2022-09-06T12:56:29.607Z,44.76
2022-09-06T12:59:14.375Z,45.30
2022-09-06T13:01:49.636Z,45.13
2022-09-06T13:04:42.658Z,46.14
2022-09-06T13:07:12.999Z,46.17
2022-09-06T13:09:44.727Z,46.99
2022-09-06T13:12:33.481Z,47.15
2022-09-06T13:15:25.362Z,46.48
2022-09-06T13:17:55.324Z,47.54
2022-09-06T13:20:29.388Z,46.90
2022-09-06T13:23:11.588Z,47.26
2022-09-06T13:25:50.780Z,46.06
2022-09-06T13:28:30.315Z,46.43
2022-09-06T13:31:07.005Z,46.33
2022-09-06T13:33:36.055Z,47.29
2022-09-06T13:36:12.294Z,47.22
2022-09-06T13:38:42.378Z,46.34
2022-09-06T13:41:25.079Z,46.35
2022-09-06T13:44:04.607Z,46.56
2022-09-06T13:46:36.484Z,47.99
2022-09-06T13:49:11.025Z,47.42
2022-09-06T13:51:43.271Z,47.57
2022-09-06T13:54:13.150Z,48.65
2022-09-06T13:56:41.789Z,47.73
2022-09-06T13:59:12.413Z,48.29
2022-09-06T14:01:42.749Z,47.83
2022-09-06T14:04:12.887Z,48.06
2022-09-06T14:06:40.677Z,47.10
2022-09-06T14:09:12.655Z,48.82
2022-09-06T14:11:47.530Z,47.95
2022-09-06T14:14:39.443Z,48.20
2022-09-06T14:17:15.402Z,46.94
2022-09-06T14:19:46.488Z,46.73
2022-09-06T14:22:15.890Z,47.44
2022-09-06T14:24:43.996Z,47.58
2022-09-06T14:27:36.674Z,46.96
2022-09-06T14:30:05.036Z,46.71
2022-09-06T14:32:33.012Z,46.48
2022-09-06T14:35:02.238Z,45.96
2022-09-06T14:37:30.421Z,46.18
2022-09-06T14:40:29.337Z,45.71
2022-09-06T14:42:58.444Z,45.37
2022-09-06T14:45:25.868Z,45.96
2022-09-06T14:47:53.719Z,47.07
2022-09-06T14:50:21.848Z,46.94
2022-09-06T14:52:49.317Z,46.22
2022-09-06T14:55:18.092Z,46.39
2022-09-06T14:57:46.145Z,47.55
2022-09-06T15:00:14.391Z,47.57
2022-09-06T15:02:41.958Z,47.33
2022-09-06T15:05:11.050Z,48.34
2022-09-06T15:07:38.611Z,48.53
2022-09-06T15:10:06.600Z,47.93
2022-09-06T15:12:33.997Z,48.17
2022-09-06T15:15:03.108Z,48.09
2022-09-06T15:17:31.689Z,47.98
2022-09-06T15:19:58.811Z,47.80
2022-09-06T15:22:26.905Z,48.68
2022-09-06T15:24:54.506Z,48.96
2022-09-06T15:27:21.692Z,49.66
2022-09-06T15:29:48.951Z,49.30
2022-09-06T15:32:16.082Z,49.78
2022-09-06T15:34:43.582Z,50.24
2022-09-06T15:37:11.152Z,51.33
2022-09-06T15:39:38.448Z,50.33
2022-09-06T15:42:06.398Z,49.69
2022-09-06T15:44:34.578Z,49.47
2022-09-06T15:47:02.032Z,48.96
2022-09-06T15:49:31.961Z,49.05
2022-09-06T15:52:02.187Z,50.82
2022-09-06T15:54:48.717Z,50.88
2022-09-06T15:57:17.123Z,50.42
2022-09-06T15:59:45.189Z,50.96
2022-09-06T16:02:13.440Z,51.15
2022-09-06T16:04:40.750Z,51.99
2022-09-06T16:07:08.805Z,52.70
2022-09-06T16:09:36.166Z,53.21
2022-09-06T16:12:03.864Z,53.07
2022-09-06T16:14:31.803Z,53.77
2022-09-06T16:16:59.251Z,53.77
2022-09-06T16:19:26.800Z,54.64
2022-09-06T16:21:54.328Z,54.79
2022-09-06T16:24:22.838Z,55.72
2022-09-06T16:26:50.576Z,56.12
2022-09-06T16:29:19.275Z,56.57
2022-09-06T16:31:47.811Z,57.12
2022-09-06T16:34:15.805Z,56.90
2022-09-06T16:36:43.065Z,57.30
2022-09-06T16:39:11.105Z,57.74
2022-09-06T16:41:41.440Z,58.78
2022-09-06T16:44:10.575Z,59.95
2022-09-06T16:46:40.210Z,61.02
2022-09-06T16:49:07.546Z,61.95
2022-09-06T16:51:34.811Z,62.77
2022-09-06T16:54:02.944Z,64.05
2022-09-06T16:56:36.111Z,64.65
2022-09-06T16:59:08.325Z,65.86
2022-09-06T17:01:37.398Z,67.48
2022-09-06T17:04:05.811Z,67.74
2022-09-06T17:06:38.469Z,68.13
2022-09-06T17:09:05.753Z,68.94
2022-09-06T17:11:32.981Z,68.80
2022-09-06T17:14:04.082Z,68.73
2022-09-06T17:16:49.765Z,69.63
2022-09-06T17:19:22.979Z,69.89
2022-09-06T17:21:50.796Z,70.53
2022-09-06T17:24:18.381Z,71.03
2022-09-06T17:26:46.207Z,71.07
2022-09-06T17:29:13.373Z,70.71
2022-09-06T17:31:40.782Z,70.13
2022-09-06T17:34:08.121Z,68.00
2022-09-06T17:36:38.990Z,67.98
2022-09-06T17:39:14.015Z,67.80
2022-09-06T17:41:45.766Z,67.02
2022-09-06T17:44:15.489Z,68.63
2022-09-06T17:46:57.100Z,69.11
2022-09-06T17:49:31.111Z,69.10
2022-09-06T17:51:58.638Z,69.66
2022-09-06T17:54:26.011Z,70.02
2022-09-06T17:56:53.439Z,70.17
2022-09-06T17:59:20.646Z,65.44
2022-09-06T18:01:48.018Z,65.26
2022-09-06T18:04:15.457Z,65.75
2022-09-06T18:06:43.663Z,65.33
2022-09-06T18:09:14.869Z,65.61
2022-09-06T18:11:45.760Z,64.40
2022-09-06T18:14:16.987Z,64.35
2022-09-06T18:16:47.197Z,65.51
2022-09-06T18:19:16.149Z,63.97
2022-09-06T18:21:43.715Z,64.19
2022-09-06T18:24:13.869Z,64.94
2022-09-06T18:26:43.137Z,63.49
2022-09-06T18:29:17.874Z,63.91
2022-09-06T18:31:46.528Z,64.51
2022-09-06T18:34:16.606Z,65.97
2022-09-06T18:36:45.255Z,64.92
2022-09-06T18:39:13.402Z,65.54
2022-09-06T18:42:00.311Z,65.54
2022-09-06T18:44:32.300Z,66.36
2022-09-06T18:47:07.971Z,66.66
2022-09-06T18:49:38.506Z,67.01
2022-09-06T18:52:07.956Z,67.59
2022-09-06T18:54:36.649Z,69.20
2022-09-06T18:57:04.673Z,70.19
2022-09-06T18:59:32.278Z,70.87
2022-09-06T19:01:59.960Z,71.54
2022-09-06T19:04:28.637Z,72.27
2022-09-06T19:06:56.023Z,72.46
2022-09-06T19:09:23.768Z,72.27
2022-09-06T19:11:52.896Z,72.62
2022-09-06T19:14:20.680Z,73.32
2022-09-06T19:16:50.218Z,74.01
2022-09-06T19:19:18.322Z,74.21
2022-09-06T19:21:45.761Z,74.57
2022-09-06T19:24:15.204Z,74.81
2022-09-06T19:26:44.338Z,75.71
2022-09-06T19:29:17.207Z,76.35
2022-09-06T19:31:46.455Z,76.37
2022-09-06T19:34:19.126Z,76.78
2022-09-06T19:36:46.423Z,76.84
2022-09-06T19:39:15.874Z,78.75
2022-09-06T19:41:45.285Z,79.40
2022-09-06T19:44:14.050Z,79.86
2022-09-06T19:46:45.626Z,80.26
2022-09-06T19:49:19.297Z,78.32
2022-09-06T19:51:49.222Z,79.71
2022-09-06T19:54:17.754Z,80.37
2022-09-06T19:56:46.786Z,81.11
2022-09-06T19:59:15.407Z,80.08
2022-09-06T20:01:44.580Z,78.82
2022-09-06T20:04:13.929Z,78.53
2022-09-06T20:06:41.406Z,79.43
2022-09-06T20:09:10.462Z,79.96
2022-09-06T20:11:39.379Z,81.06
2022-09-06T20:14:07.293Z,82.16
2022-09-06T20:16:38.099Z,82.00
2022-09-06T20:19:07.951Z,81.20
2022-09-06T20:21:35.118Z,79.40
2022-09-06T20:24:02.513Z,78.50
2022-09-06T20:26:30.595Z,80.21
2022-09-06T20:29:03.301Z,81.09
2022-09-06T20:31:31.858Z,81.31
2022-09-06T20:34:01.123Z,80.62
2022-09-06T20:36:28.930Z,81.15
2022-09-06T20:38:56.357Z,82.21
2022-09-06T20:41:25.687Z,82.81
2022-09-06T20:43:57.758Z,83.21
2022-09-06T20:46:31.265Z,83.61
2022-09-06T20:49:02.015Z,84.12
2022-09-06T20:51:29.487Z,83.93
2022-09-06T20:53:58.999Z,83.89
2022-09-06T20:56:29.155Z,84.62
2022-09-06T20:59:00.716Z,85.28
2022-09-06T21:01:34.795Z,85.84
2022-09-06T21:04:04.169Z,86.95
2022-09-06T21:06:36.330Z,87.16
2022-09-06T21:09:12.331Z,87.46
2022-09-06T21:11:40.160Z,88.22
2022-09-06T21:14:08.035Z,88.28
2022-09-06T21:16:35.338Z,88.37
2022-09-06T21:19:05.640Z,89.07
2022-09-06T21:21:34.714Z,89.11
2022-09-06T21:24:03.878Z,89.25
2022-09-06T21:26:31.213Z,89.39
2022-09-06T21:28:58.880Z,89.72
2022-09-06T21:31:36.103Z,90.36
2022-09-06T21:34:06.877Z,90.92
2022-09-06T21:36:36.505Z,90.65
2022-09-06T21:39:15.290Z,90.95
2022-09-06T21:41:43.561Z,91.50
2022-09-06T21:44:12.218Z,91.26
2022-09-06T21:46:40.323Z,91.52
2022-09-06T21:49:10.383Z,92.18
2022-09-06T21:51:38.814Z,92.71
2022-09-06T21:54:06.571Z,92.62
2022-09-06T21:56:36.020Z,93.00
2022-09-06T21:59:04.859Z,93.75
2022-09-06T22:01:34.157Z,93.81
2022-09-06T22:04:02.441Z,94.63
2022-09-06T22:06:31.814Z,94.86
2022-09-06T22:09:01.346Z,95.93
2022-09-06T22:11:31.872Z,96.17
2022-09-06T22:14:04.046Z,96.36
2022-09-06T22:16:33.583Z,97.04
2022-09-06T22:19:01.572Z,96.90
2022-09-06T22:21:29.066Z,96.70
2022-09-06T22:24:01.488Z,96.96
2022-09-06T22:26:30.829Z,97.10
2022-09-06T22:29:03.390Z,97.55
2022-09-06T22:31:32.166Z,98.26
2022-09-06T22:33:59.858Z,97.25
2022-09-06T22:36:27.762Z,97.79
2022-09-06T22:38:58.731Z,98.12
2022-09-06T22:41:32.299Z,98.75
2022-09-06T22:44:01.068Z,99.58
2022-09-06T22:46:29.112Z,99.61
2022-09-06T22:48:56.467Z,100.00
2022-09-06T22:51:23.709Z,100.00
2022-09-06T22:53:51.047Z,99.39
2022-09-06T22:56:18.179Z,99.11
2022-09-06T22:58:45.462Z,98.88
2022-09-06T23:01:14.857Z,98.75
2022-09-06T23:03:42.812Z,98.25
2022-09-06T23:06:10.788Z,98.35
2022-09-06T23:08:39.847Z,99.03
2022-09-06T23:11:09.806Z,99.49
2022-09-06T23:13:37.342Z,99.08
2022-09-06T23:16:11.327Z,98.99
2022-09-06T23:18:38.767Z,99.52
2022-09-06T23:21:11.928Z,100.00
2022-09-06T23:23:40.238Z,100.00
2022-09-06T23:26:09.914Z,100.00
2022-09-06T23:28:37.667Z,100.00
2022-09-06T23:31:07.049Z,100.00
2022-09-06T23:33:36.336Z,100.00
2022-09-06T23:36:05.659Z,100.00
2022-09-06T23:38:37.624Z,100.00
2022-09-06T23:41:05.989Z,100.00
2022-09-06T23:43:33.363Z,100.00
2022-09-06T23:46:00.982Z,100.00
2022-09-06T23:48:29.340Z,100.00
2022-09-06T23:50:57.041Z,100.00
2022-09-06T23:53:24.302Z,100.00
2022-09-06T23:55:51.535Z,100.00
2022-09-06T23:58:18.774Z,100.00
